createdAt,value
2023-07-05T00:01:44.060Z,56.69
2023-07-05T00:04:12.836Z,57.16
2023-07-05T00:06:41.755Z,56.85
2023-07-05T00:09:10.493Z,56.66
2023-07-05T00:11:39.377Z,57.23
2023-07-05T00:14:08.013Z,57.46
2023-07-05T00:16:37.043Z,56.91
2023-07-05T00:19:08.937Z,57.16
2023-07-05T00:21:37.880Z,56.87
2023-07-05T00:24:06.997Z,56.51
2023-07-05T00:26:36.125Z,56.39
2023-07-05T00:29:04.871Z,56.26
2023-07-05T00:31:33.857Z,56.22
2023-07-05T00:34:02.503Z,56.23
2023-07-05T00:36:32.702Z,56.83
2023-07-05T00:39:01.277Z,56.71
2023-07-05T00:41:30.233Z,56.58
2023-07-05T00:43:59.018Z,56.43
2023-07-05T00:46:32.836Z,55.93
2023-07-05T00:49:05.723Z,56.06
2023-07-05T00:51:44.303Z,55.63
2023-07-05T00:54:13.068Z,55.39
2023-07-05T00:56:48.265Z,55.39
2023-07-05T00:59:18.066Z,56.02
2023-07-05T01:02:02.353Z,55.61
2023-07-05T01:04:35.595Z,55.83
2023-07-05T01:07:06.519Z,55.55
2023-07-05T01:09:35.424Z,55.56
2023-07-05T01:12:16.912Z,55.21
2023-07-05T01:14:56.286Z,55.37
2023-07-05T01:17:36.538Z,55.18
2023-07-05T01:20:21.212Z,55.02
2023-07-05T01:23:35.269Z,55.17
2023-07-05T01:26:34.560Z,55.33
2023-07-05T01:29:37.621Z,55.56
2023-07-05T01:32:13.142Z,55.67
2023-07-05T01:34:49.086Z,56.09
2023-07-05T01:37:29.809Z,55.98
2023-07-05T01:39:58.752Z,55.42
2023-07-05T01:42:31.665Z,55.71
2023-07-05T01:45:01.536Z,55.32
2023-07-05T01:47:38.366Z,55.21
2023-07-05T01:50:15.276Z,55.11
2023-07-05T01:52:49.062Z,54.97
2023-07-05T01:55:26.722Z,54.90
2023-07-05T01:58:01.931Z,55.20
2023-07-05T02:00:33.073Z,55.55
2023-07-05T02:03:09.058Z,55.71
2023-07-05T02:05:39.152Z,55.23
2023-07-05T02:08:07.823Z,55.36
2023-07-05T02:10:37.102Z,55.50
2023-07-05T02:13:12.193Z,55.24
2023-07-05T02:15:41.758Z,55.79
2023-07-05T02:18:11.813Z,56.20
2023-07-05T02:20:43.081Z,55.87
2023-07-05T02:23:11.815Z,55.63
2023-07-05T02:25:40.784Z,55.95
2023-07-05T02:28:12.296Z,55.67
2023-07-05T02:30:41.918Z,55.40
2023-07-05T02:33:12.295Z,55.64
2023-07-05T02:35:42.099Z,55.33
2023-07-05T02:38:10.638Z,55.99
2023-07-05T02:40:39.600Z,56.45
2023-07-05T02:43:08.106Z,56.48
2023-07-05T02:45:37.568Z,56.33
2023-07-05T02:48:08.237Z,56.32
2023-07-05T02:50:41.500Z,55.91
2023-07-05T02:53:10.047Z,56.04
2023-07-05T02:55:38.922Z,55.63
2023-07-05T02:58:07.540Z,55.90
2023-07-05T03:00:37.713Z,55.97
2023-07-05T03:03:06.523Z,56.22
2023-07-05T03:05:35.841Z,56.09
2023-07-05T03:08:06.339Z,56.06
2023-07-05T03:10:39.746Z,55.75
2023-07-05T03:13:08.401Z,55.64
2023-07-05T03:15:37.258Z,55.40
2023-07-05T03:18:06.095Z,55.66
2023-07-05T03:20:35.074Z,55.90
2023-07-05T03:23:05.060Z,55.70
2023-07-05T03:25:34.028Z,55.42
2023-07-05T03:28:04.520Z,55.87
2023-07-05T03:30:34.007Z,55.66
2023-07-05T03:33:02.707Z,55.67
2023-07-05T03:35:32.341Z,55.14
2023-07-05T03:38:00.933Z,55.11
2023-07-05T03:40:31.675Z,55.18
2023-07-05T03:43:00.241Z,55.02
2023-07-05T03:45:29.200Z,56.33
2023-07-05T03:47:57.788Z,56.51
2023-07-05T03:50:26.799Z,56.39
2023-07-05T03:52:55.458Z,56.80
2023-07-05T03:55:24.604Z,57.03
2023-07-05T03:57:54.584Z,56.62
2023-07-05T04:00:23.805Z,56.37
2023-07-05T04:02:52.437Z,56.78
2023-07-05T04:05:21.726Z,56.30
2023-07-05T04:07:50.408Z,57.00
2023-07-05T04:10:19.404Z,57.83
2023-07-05T04:12:47.988Z,58.77
2023-07-05T04:15:18.501Z,58.76
2023-07-05T04:17:47.271Z,58.18
2023-07-05T04:20:16.388Z,58.47
2023-07-05T04:22:45.211Z,57.40
2023-07-05T04:25:14.368Z,57.01
2023-07-05T04:27:46.179Z,57.43
2023-07-05T04:30:15.853Z,56.73
2023-07-05T04:32:46.089Z,57.14
2023-07-05T04:35:15.013Z,57.10
2023-07-05T04:37:43.730Z,56.16
2023-07-05T04:40:13.514Z,56.43
2023-07-05T04:42:42.193Z,56.00
2023-07-05T04:45:11.912Z,55.20
2023-07-05T04:47:40.611Z,55.22
2023-07-05T04:50:11.420Z,55.08
2023-07-05T04:52:40.178Z,54.78
2023-07-05T04:55:11.274Z,54.65
2023-07-05T04:57:42.767Z,54.07
2023-07-05T05:00:13.552Z,53.87
2023-07-05T05:02:42.364Z,56.33
2023-07-05T05:05:12.816Z,55.67
2023-07-05T05:07:41.446Z,55.20
2023-07-05T05:10:10.885Z,54.72
2023-07-05T05:12:39.613Z,54.43
2023-07-05T05:15:09.598Z,55.76
2023-07-05T05:17:38.265Z,55.86
2023-07-05T05:20:09.642Z,55.30
2023-07-05T05:22:39.602Z,55.94
2023-07-05T05:25:09.180Z,55.54
2023-07-05T05:27:37.917Z,54.81
2023-07-05T05:30:08.288Z,54.60
2023-07-05T05:32:37.194Z,54.27
2023-07-05T05:35:07.525Z,53.31
2023-07-05T05:37:36.401Z,52.73
2023-07-05T05:40:08.069Z,52.59
2023-07-05T05:42:36.821Z,52.32
2023-07-05T05:45:06.866Z,53.69
2023-07-05T05:47:35.486Z,53.09
2023-07-05T05:50:04.973Z,52.22
2023-07-05T05:52:33.722Z,53.21
2023-07-05T05:55:02.935Z,52.11
2023-07-05T05:57:33.059Z,51.61
2023-07-05T06:00:02.140Z,50.52
2023-07-05T06:02:34.400Z,49.32
2023-07-05T06:05:04.564Z,50.11
2023-07-05T06:07:33.645Z,52.81
2023-07-05T06:10:02.649Z,53.28
2023-07-05T06:12:32.672Z,52.17
2023-07-05T06:15:01.686Z,54.91
2023-07-05T06:17:30.469Z,55.95
2023-07-05T06:19:59.460Z,55.97
2023-07-05T06:22:28.076Z,55.30
2023-07-05T06:24:57.098Z,55.24
2023-07-05T06:27:25.808Z,55.07
2023-07-05T06:29:56.710Z,56.16
2023-07-05T06:32:25.642Z,54.77
2023-07-05T06:34:54.776Z,53.78
2023-07-05T06:37:23.679Z,52.71
2023-07-05T06:39:52.611Z,52.06
2023-07-05T06:42:21.375Z,51.10
2023-07-05T06:44:59.398Z,54.70
2023-07-05T06:47:28.000Z,53.55
2023-07-05T06:49:58.503Z,51.94
2023-07-05T06:52:27.189Z,51.96
2023-07-05T06:54:56.112Z,52.63
2023-07-05T06:57:24.911Z,52.83
2023-07-05T06:59:54.203Z,51.32
2023-07-05T07:02:24.302Z,52.09
2023-07-05T07:04:53.412Z,51.05
2023-07-05T07:07:22.068Z,49.96
2023-07-05T07:09:51.027Z,49.93
2023-07-05T07:12:19.740Z,51.38
2023-07-05T07:14:48.728Z,50.57
2023-07-05T07:17:17.464Z,51.39
2023-07-05T07:19:48.258Z,51.15
2023-07-05T07:22:17.175Z,49.77
2023-07-05T07:24:46.250Z,48.71
2023-07-05T07:27:16.540Z,49.70
2023-07-05T07:29:45.660Z,50.88
2023-07-05T07:32:14.599Z,51.20
2023-07-05T07:34:43.725Z,49.59
2023-07-05T07:37:14.189Z,48.90
2023-07-05T07:39:43.098Z,48.43
2023-07-05T07:42:11.825Z,47.01
2023-07-05T07:44:40.789Z,46.88
2023-07-05T07:47:09.718Z,47.65
2023-07-05T07:49:38.631Z,46.45
2023-07-05T07:52:11.906Z,46.43
2023-07-05T07:54:42.176Z,47.43
2023-07-05T07:57:11.000Z,46.54
2023-07-05T07:59:42.478Z,47.08
2023-07-05T08:02:14.920Z,47.40
2023-07-05T08:04:46.354Z,47.97
2023-07-05T08:07:16.761Z,49.51
2023-07-05T08:09:51.265Z,49.55
2023-07-05T08:12:19.806Z,49.66
2023-07-05T08:14:48.703Z,48.10
2023-07-05T08:17:17.263Z,47.20
2023-07-05T08:19:46.112Z,50.07
2023-07-05T08:22:15.470Z,52.77
2023-07-05T08:24:46.884Z,52.84
2023-07-05T08:27:15.404Z,52.78
2023-07-05T08:29:44.443Z,52.63
2023-07-05T08:32:13.170Z,50.46
2023-07-05T08:34:42.110Z,50.41
2023-07-05T08:37:11.547Z,50.52
2023-07-05T08:39:40.485Z,50.53
2023-07-05T08:42:31.917Z,50.35
2023-07-05T08:45:11.677Z,49.03
2023-07-05T08:47:48.960Z,47.33
2023-07-05T08:50:31.175Z,46.13
2023-07-05T08:53:06.657Z,44.74
2023-07-05T08:55:49.689Z,44.48
2023-07-05T08:58:24.477Z,43.72
2023-07-05T09:00:59.900Z,42.70
2023-07-05T09:03:31.143Z,42.18
2023-07-05T09:06:20.339Z,41.34
2023-07-05T09:09:01.673Z,40.39
2023-07-05T09:11:46.817Z,39.85
2023-07-05T09:14:24.740Z,40.26
2023-07-05T09:17:01.795Z,39.84
2023-07-05T09:19:46.624Z,38.93
2023-07-05T09:22:21.410Z,38.91
2023-07-05T09:24:51.200Z,38.14
2023-07-05T09:27:22.823Z,37.68
2023-07-05T09:29:57.253Z,37.70
2023-07-05T09:32:30.614Z,37.02
2023-07-05T09:35:01.613Z,37.30
2023-07-05T09:37:34.157Z,36.88
2023-07-05T09:40:12.940Z,36.87
2023-07-05T09:42:48.820Z,36.71
2023-07-05T09:45:20.026Z,36.48
2023-07-05T09:47:52.424Z,35.61
2023-07-05T09:50:23.175Z,35.91
2023-07-05T09:52:54.305Z,35.19
2023-07-05T09:55:23.055Z,35.40
2023-07-05T09:57:53.935Z,34.85
2023-07-05T10:00:27.973Z,34.58
2023-07-05T10:03:08.494Z,34.14
2023-07-05T10:05:37.276Z,33.92
2023-07-05T10:08:16.724Z,33.86
2023-07-05T10:10:45.860Z,34.15
2023-07-05T10:13:16.592Z,33.98
2023-07-05T10:15:49.155Z,33.65
2023-07-05T10:18:28.742Z,33.58
2023-07-05T10:20:59.907Z,35.10
2023-07-05T10:23:32.061Z,35.40
2023-07-05T10:26:04.032Z,35.28
2023-07-05T10:28:35.081Z,36.89
2023-07-05T10:31:06.284Z,36.69
2023-07-05T10:33:37.808Z,37.04
2023-07-05T10:36:14.489Z,35.59
2023-07-05T10:38:47.545Z,35.25
2023-07-05T10:41:26.940Z,35.35
2023-07-05T10:44:03.334Z,35.02
2023-07-05T10:46:37.545Z,34.64
2023-07-05T10:49:10.570Z,34.55
2023-07-05T10:51:43.311Z,34.82
2023-07-05T10:54:19.803Z,33.73
2023-07-05T10:56:49.531Z,33.91
2023-07-05T10:59:31.316Z,34.41
2023-07-05T11:02:20.099Z,34.05
2023-07-05T11:04:51.739Z,34.86
2023-07-05T11:07:22.540Z,34.41
2023-07-05T11:09:51.599Z,34.85
2023-07-05T11:12:23.059Z,35.82
2023-07-05T11:14:53.641Z,36.72
2023-07-05T11:17:28.872Z,36.76
2023-07-05T11:19:57.774Z,37.62
2023-07-05T11:22:39.748Z,36.06
2023-07-05T11:25:12.539Z,36.83
2023-07-05T11:27:58.963Z,36.50
2023-07-05T11:30:48.030Z,37.23
2023-07-05T11:33:21.788Z,37.66
2023-07-05T11:35:54.560Z,37.47
2023-07-05T11:38:58.151Z,36.61
2023-07-05T11:41:35.530Z,35.69
2023-07-05T11:44:06.568Z,35.56
2023-07-05T11:46:46.534Z,35.55
2023-07-05T11:49:38.766Z,35.40
2023-07-05T11:52:14.233Z,34.68
2023-07-05T11:54:51.068Z,34.60
2023-07-05T11:57:20.492Z,33.53
2023-07-05T11:59:56.812Z,32.14
2023-07-05T12:02:34.107Z,30.34
2023-07-05T12:05:11.921Z,32.03
2023-07-05T12:07:42.316Z,32.99
2023-07-05T12:10:19.932Z,33.05
2023-07-05T12:12:49.575Z,33.20
2023-07-05T12:15:18.368Z,31.74
2023-07-05T12:17:48.449Z,30.59
2023-07-05T12:20:30.605Z,29.17
2023-07-05T12:23:01.450Z,28.75
2023-07-05T12:25:30.565Z,27.88
2023-07-05T12:28:01.689Z,27.94
2023-07-05T12:30:30.784Z,29.42
2023-07-05T12:33:00.301Z,28.82
2023-07-05T12:35:30.798Z,28.39
2023-07-05T12:38:00.241Z,27.09
2023-07-05T12:40:31.421Z,25.79
2023-07-05T12:43:03.538Z,25.22
2023-07-05T12:45:33.936Z,26.24
2023-07-05T12:48:16.743Z,24.78
2023-07-05T12:50:47.413Z,24.36
2023-07-05T12:53:18.988Z,25.63
2023-07-05T12:55:59.075Z,24.77
2023-07-05T12:58:29.899Z,24.31
2023-07-05T13:01:00.528Z,25.08
2023-07-05T13:03:32.490Z,26.01
2023-07-05T13:06:04.369Z,27.49
2023-07-05T13:08:33.425Z,26.18
2023-07-05T13:11:04.109Z,26.15
2023-07-05T13:13:35.402Z,26.32
2023-07-05T13:16:22.244Z,25.91
2023-07-05T13:19:03.184Z,26.87
2023-07-05T13:21:41.766Z,26.75
2023-07-05T13:24:21.620Z,25.85
2023-07-05T13:26:50.308Z,24.64
2023-07-05T13:29:26.425Z,25.16
2023-07-05T13:31:57.072Z,25.91
2023-07-05T13:34:28.277Z,25.39
2023-07-05T13:37:02.489Z,23.76
2023-07-05T13:39:31.900Z,22.80
2023-07-05T13:42:03.504Z,22.16
2023-07-05T13:44:33.048Z,21.46
2023-07-05T13:47:02.084Z,21.10
2023-07-05T13:49:30.985Z,20.24
2023-07-05T13:52:03.260Z,19.97
2023-07-05T13:54:32.241Z,19.50
2023-07-05T13:57:00.925Z,19.32
2023-07-05T13:59:30.531Z,21.50
2023-07-05T14:01:59.875Z,20.90
2023-07-05T14:04:29.067Z,22.00
2023-07-05T14:06:57.762Z,23.97
2023-07-05T14:09:28.174Z,24.70
2023-07-05T14:11:56.838Z,24.91
2023-07-05T14:14:25.725Z,24.73
2023-07-05T14:16:54.302Z,25.76
2023-07-05T14:19:23.986Z,25.32
2023-07-05T14:21:52.663Z,24.93
2023-07-05T14:24:22.256Z,25.40
2023-07-05T14:26:52.593Z,25.91
2023-07-05T14:29:23.182Z,26.95
2023-07-05T14:31:52.000Z,28.16
2023-07-05T14:34:20.966Z,29.10
2023-07-05T14:36:49.600Z,29.55
2023-07-05T14:39:18.546Z,30.99
2023-07-05T14:41:47.197Z,31.40
2023-07-05T14:44:17.569Z,31.44
2023-07-05T14:46:46.380Z,31.08
2023-07-05T14:49:15.368Z,30.98
2023-07-05T14:51:44.228Z,30.89
2023-07-05T14:54:13.539Z,30.82
2023-07-05T14:56:43.157Z,30.68
2023-07-05T14:59:13.255Z,30.39
2023-07-05T15:01:43.507Z,29.92
2023-07-05T15:04:12.694Z,29.44
2023-07-05T15:06:41.398Z,29.50
2023-07-05T15:09:13.197Z,29.19
2023-07-05T15:11:42.610Z,29.05
2023-07-05T15:14:14.453Z,28.92
2023-07-05T15:16:44.522Z,28.63
2023-07-05T15:19:13.356Z,28.78
2023-07-05T15:21:42.912Z,28.93
2023-07-05T15:24:11.810Z,28.70
2023-07-05T15:26:40.344Z,29.14
2023-07-05T15:29:09.293Z,28.41
2023-07-05T15:31:38.652Z,28.99
2023-07-05T15:34:09.102Z,30.20
2023-07-05T15:36:37.764Z,29.83
2023-07-05T15:39:06.814Z,29.87
2023-07-05T15:41:35.377Z,29.54
2023-07-05T15:44:04.738Z,29.22
2023-07-05T15:46:33.716Z,29.22
2023-07-05T15:49:02.714Z,29.41
2023-07-05T15:51:33.336Z,29.29
2023-07-05T15:54:02.670Z,29.19
2023-07-05T15:56:31.366Z,29.10
2023-07-05T15:59:03.602Z,29.09
2023-07-05T16:01:33.277Z,29.08
2023-07-05T16:04:02.589Z,29.25
2023-07-05T16:06:32.631Z,29.55
2023-07-05T16:09:01.578Z,28.98
2023-07-05T16:11:30.214Z,29.51
2023-07-05T16:13:59.279Z,30.47
2023-07-05T16:16:27.921Z,30.87
2023-07-05T16:18:56.915Z,31.47
2023-07-05T16:21:25.782Z,31.76
2023-07-05T16:23:56.116Z,31.87
2023-07-05T16:26:25.070Z,32.70
2023-07-05T16:28:54.074Z,32.61
2023-07-05T16:31:23.183Z,31.82
2023-07-05T16:33:52.350Z,31.69
2023-07-05T16:36:21.699Z,31.58
2023-07-05T16:38:50.694Z,31.38
2023-07-05T16:41:23.198Z,30.60
2023-07-05T16:43:53.052Z,30.58
2023-07-05T16:46:21.899Z,31.76
2023-07-05T16:48:50.950Z,31.84
2023-07-05T16:51:19.618Z,31.47
2023-07-05T16:53:48.783Z,31.06
2023-07-05T16:56:17.451Z,31.42
2023-07-05T16:58:47.883Z,31.31
2023-07-05T17:01:17.759Z,31.16
2023-07-05T17:03:47.181Z,31.67
2023-07-05T17:06:16.758Z,31.79
2023-07-05T17:08:45.970Z,32.87
2023-07-05T17:11:14.971Z,32.99
2023-07-05T17:13:44.196Z,32.15
2023-07-05T17:16:16.340Z,31.91
2023-07-05T17:18:45.535Z,31.93
2023-07-05T17:21:16.882Z,30.96
2023-07-05T17:23:45.941Z,30.15
2023-07-05T17:26:16.043Z,29.48
2023-07-05T17:28:47.405Z,29.22
2023-07-05T17:31:21.756Z,29.12
2023-07-05T17:33:52.007Z,28.73
2023-07-05T17:36:22.847Z,28.45
2023-07-05T17:38:53.211Z,28.27
2023-07-05T17:41:23.343Z,27.53
2023-07-05T17:43:52.691Z,26.64
2023-07-05T17:46:25.629Z,26.83
2023-07-05T17:48:58.401Z,26.05
2023-07-05T17:51:28.471Z,26.75
2023-07-05T17:53:59.200Z,26.14
2023-07-05T17:56:28.228Z,26.08
2023-07-05T17:58:58.353Z,26.75
2023-07-05T18:01:29.916Z,26.77
2023-07-05T18:03:59.481Z,27.36
2023-07-05T18:06:28.175Z,27.72
2023-07-05T18:08:58.642Z,27.53
2023-07-05T18:11:27.353Z,26.98
2023-07-05T18:13:56.809Z,27.47
2023-07-05T18:16:26.425Z,28.13
2023-07-05T18:18:57.084Z,28.44
2023-07-05T18:21:28.775Z,28.35
2023-07-05T18:23:57.775Z,28.93
2023-07-05T18:26:26.432Z,29.09
2023-07-05T18:28:55.451Z,29.50
2023-07-05T18:31:24.205Z,29.78
2023-07-05T18:33:54.781Z,29.99
2023-07-05T18:36:25.181Z,30.26
2023-07-05T18:38:54.767Z,30.40
2023-07-05T18:41:24.436Z,30.80
2023-07-05T18:43:53.388Z,31.20
2023-07-05T18:46:22.794Z,31.59
2023-07-05T18:48:51.904Z,31.96
2023-07-05T18:51:20.698Z,31.73
2023-07-05T18:53:51.056Z,32.13
2023-07-05T18:56:21.818Z,32.90
2023-07-05T18:58:50.848Z,33.04
2023-07-05T19:01:21.338Z,33.40
2023-07-05T19:03:52.797Z,33.80
2023-07-05T19:06:24.249Z,34.10
2023-07-05T19:08:56.531Z,34.49
2023-07-05T19:11:28.125Z,34.52
2023-07-05T19:13:57.297Z,34.96
2023-07-05T19:16:27.466Z,35.01
2023-07-05T19:18:59.072Z,34.53
2023-07-05T19:21:27.912Z,35.32
2023-07-05T19:23:58.293Z,36.25
2023-07-05T19:26:26.938Z,36.45
2023-07-05T19:28:55.884Z,36.51
2023-07-05T19:31:27.318Z,36.65
2023-07-05T19:33:56.780Z,35.77
2023-07-05T19:36:27.621Z,36.35
2023-07-05T19:38:58.884Z,36.87
2023-07-05T19:41:27.626Z,37.75
2023-07-05T19:43:56.843Z,38.18
2023-07-05T19:46:27.460Z,38.66
2023-07-05T19:49:00.751Z,38.89
2023-07-05T19:51:30.626Z,39.59
2023-07-05T19:54:01.097Z,39.57
2023-07-05T19:56:31.801Z,39.50
2023-07-05T19:59:02.008Z,38.72
2023-07-05T20:01:30.895Z,39.56
2023-07-05T20:04:02.023Z,39.08
2023-07-05T20:06:31.519Z,38.99
2023-07-05T20:09:03.921Z,39.40
2023-07-05T20:11:33.253Z,39.19
2023-07-05T20:14:04.250Z,38.81
2023-07-05T20:19:02.955Z,39.27
2023-07-05T20:21:31.547Z,39.31
2023-07-05T20:24:02.417Z,39.70
2023-07-05T20:26:31.034Z,39.95
2023-07-05T20:28:59.904Z,39.51
2023-07-05T20:31:28.722Z,39.14
2023-07-05T20:33:58.622Z,38.93
2023-07-05T20:36:28.849Z,39.12
2023-07-05T20:38:58.131Z,38.82
2023-07-05T20:41:28.438Z,38.84
2023-07-05T20:43:58.298Z,40.84
2023-07-05T20:46:28.743Z,41.78
2023-07-05T20:48:58.876Z,42.21
2023-07-05T20:51:28.257Z,42.31
2023-07-05T20:53:57.170Z,42.52
2023-07-05T20:56:27.255Z,42.63
2023-07-05T20:58:56.144Z,42.85
2023-07-05T21:01:24.829Z,42.75
2023-07-05T21:03:54.539Z,42.91
2023-07-05T21:06:23.264Z,42.77
2023-07-05T21:08:52.519Z,42.66
2023-07-05T21:11:21.493Z,42.67
2023-07-05T21:13:51.929Z,42.80
2023-07-05T21:16:20.906Z,42.99
2023-07-05T21:18:49.994Z,42.74
2023-07-05T21:21:19.499Z,42.05
2023-07-05T21:23:49.090Z,42.36
2023-07-05T21:26:17.828Z,43.04
2023-07-05T21:28:46.686Z,44.17
2023-07-05T21:31:16.851Z,44.12
2023-07-05T21:33:46.261Z,43.75
2023-07-05T21:36:15.045Z,43.67
2023-07-05T21:38:43.993Z,43.67
2023-07-05T21:41:17.809Z,43.96
2023-07-05T21:43:48.489Z,43.65
2023-07-05T21:46:18.772Z,43.71
2023-07-05T21:48:48.259Z,44.08
2023-07-05T21:51:17.221Z,44.11
2023-07-05T21:53:46.690Z,43.81
2023-07-05T21:56:16.653Z,44.18
2023-07-05T21:58:45.598Z,44.39
2023-07-05T22:01:14.248Z,44.31
2023-07-05T22:03:44.734Z,44.54
2023-07-05T22:06:13.472Z,44.42
2023-07-05T22:08:42.403Z,44.36
2023-07-05T22:11:11.062Z,44.68
2023-07-05T22:13:42.400Z,44.28
2023-07-05T22:16:18.364Z,44.40
2023-07-05T22:18:49.674Z,44.54
2023-07-05T22:21:18.993Z,44.89
2023-07-05T22:23:47.978Z,44.96
2023-07-05T22:26:16.579Z,44.92
2023-07-05T22:28:45.520Z,45.25
2023-07-05T22:31:14.439Z,45.05
2023-07-05T22:33:43.337Z,45.11
2023-07-05T22:36:14.860Z,44.91
2023-07-05T22:38:43.924Z,45.02
2023-07-05T22:41:14.034Z,45.40
2023-07-05T22:43:46.850Z,45.83
2023-07-05T22:46:15.913Z,46.05
2023-07-05T22:48:45.739Z,46.43
2023-07-05T22:51:15.908Z,46.03
2023-07-05T22:53:47.128Z,46.18
2023-07-05T22:56:15.700Z,46.52
2023-07-05T22:58:45.032Z,46.59
2023-07-05T23:01:13.877Z,46.48
2023-07-05T23:03:43.019Z,46.36
2023-07-05T23:06:14.459Z,46.73
2023-07-05T23:08:44.817Z,46.30
2023-07-05T23:11:14.480Z,46.36
2023-07-05T23:13:45.394Z,46.20
2023-07-05T23:16:16.917Z,46.09
2023-07-05T23:18:47.113Z,46.25
2023-07-05T23:21:17.679Z,46.31
2023-07-05T23:23:50.630Z,46.16
2023-07-05T23:26:20.217Z,46.14
2023-07-05T23:28:49.981Z,45.69
2023-07-05T23:31:23.989Z,46.16
2023-07-05T23:33:54.390Z,45.99
2023-07-05T23:36:23.892Z,45.63
2023-07-05T23:38:55.338Z,45.40
2023-07-05T23:41:25.974Z,46.08
2023-07-05T23:43:55.955Z,46.00
2023-07-05T23:46:30.943Z,46.26
2023-07-05T23:49:01.153Z,46.03
2023-07-05T23:51:30.197Z,46.01
2023-07-05T23:54:00.995Z,45.62
2023-07-05T23:56:31.317Z,45.33
2023-07-05T23:59:00.277Z,45.51
